Time;durP1;ratioP1;P1;durP2;ratioP2;P2;SDS_P1;SDS_P2;PMS_P1;PMS_P2;Temp;Humidity;BMP_temperature;BMP_pressure;BME280_temperature;BME280_humidity;BME280_pressure;Samples;Min_cycle;Max_cycle;Signal;HPM_P1;HPM_P2
2023/08/06 00:00:05;;;;;;;3.30;1.90;;;18.30;92.50;;;;;;6186826;23;19998;-82
2023/08/06 00:02:31;;;;;;;3.08;1.90;;;18.30;92.30;;;;;;6189458;23;20023;-82
2023/08/06 00:04:56;;;;;;;2.85;1.70;;;18.30;92.30;;;;;;6187395;23;20432;-82
2023/08/06 00:07:22;;;;;;;3.15;1.60;;;18.30;92.30;;;;;;6188767;23;20048;-83
2023/08/06 00:09:47;;;;;;;3.08;1.70;;;18.30;92.20;;;;;;6187614;23;20028;-83
2023/08/06 00:12:13;;;;;;;2.38;1.65;;;18.30;92.20;;;;;;6186575;23;20013;-83
2023/08/06 00:14:38;;;;;;;2.97;1.77;;;18.40;92.10;;;;;;6187257;23;20494;-82
2023/08/06 00:17:04;;;;;;;2.97;1.83;;;18.40;92.10;;;;;;6186538;23;20079;-83
2023/08/06 00:19:31;;;;;;;2.03;1.60;;;18.40;92.00;;;;;;6186547;23;20005;-82
2023/08/06 00:21:56;;;;;;;3.13;1.73;;;18.40;91.90;;;;;;6211490;23;20005;-83
2023/08/06 00:24:22;;;;;;;2.60;1.80;;;18.40;91.90;;;;;;6187205;23;20084;-82
2023/08/06 00:26:47;;;;;;;2.67;1.73;;;18.40;91.90;;;;;;6188398;23;20069;-83
2023/08/06 00:29:13;;;;;;;2.65;1.60;;;18.40;91.80;;;;;;6186741;23;20016;-83
2023/08/06 00:31:38;;;;;;;2.10;1.48;;;18.40;91.80;;;;;;6186151;23;20008;-82
2023/08/06 00:34:04;;;;;;;2.95;1.70;;;18.40;91.90;;;;;;6187380;23;20498;-83
2023/08/06 00:36:29;;;;;;;3.40;2.00;;;18.40;91.90;;;;;;6187641;23;20454;-82
2023/08/06 00:38:55;;;;;;;2.70;1.77;;;18.40;91.90;;;;;;6185872;23;20027;-83
2023/08/06 00:41:21;;;;;;;2.55;1.75;;;18.40;92.00;;;;;;6186036;23;20083;-82
2023/08/06 00:43:47;;;;;;;2.53;1.70;;;18.40;92.10;;;;;;6185200;23;20037;-82
2023/08/06 00:46:13;;;;;;;2.60;1.77;;;18.40;92.10;;;;;;6187084;23;20001;-82
2023/08/06 00:48:39;;;;;;;2.70;1.67;;;18.30;92.20;;;;;;6185465;23;20009;-83
2023/08/06 00:51:05;;;;;;;2.25;1.55;;;18.40;92.20;;;;;;6185512;23;20443;-82
2023/08/06 00:53:30;;;;;;;3.05;1.73;;;18.30;92.30;;;;;;6186261;23;20008;-80
2023/08/06 00:55:56;;;;;;;2.95;1.90;;;18.30;92.30;;;;;;6184978;23;20005;-82
2023/08/06 00:58:22;;;;;;;2.20;1.42;;;18.30;92.30;;;;;;6186602;23;20089;-82
2023/08/06 01:00:47;;;;;;;1.83;1.40;;;18.30;92.30;;;;;;6185264;23;20088;-82
2023/08/06 01:03:13;;;;;;;2.63;1.65;;;18.30;92.30;;;;;;6186632;23;20080;-82
2023/08/06 01:05:38;;;;;;;2.45;1.55;;;18.30;92.30;;;;;;6184409;23;20363;-82
2023/08/06 01:08:19;;;;;;;2.45;1.67;;;18.30;92.30;;;;;;6184555;23;20005;-83
2023/08/06 01:11:26;;;;;;;2.30;1.60;;;18.30;92.30;;;;;;6185555;23;20516;-82
2023/08/06 01:14:02;;;;;;;2.40;1.45;;;18.30;92.30;;;;;;6210270;23;20586;-82
2023/08/06 01:16:28;;;;;;;3.03;1.92;;;18.30;92.30;;;;;;6187481;23;20439;-82
2023/08/06 01:18:53;;;;;;;2.22;1.50;;;18.30;92.30;;;;;;6210616;23;20013;-83
2023/08/06 01:21:19;;;;;;;2.22;1.60;;;18.30;92.30;;;;;;6185717;23;20005;-82
2023/08/06 01:23:46;;;;;;;2.58;1.52;;;18.30;92.30;;;;;;6184620;23;20510;-82
2023/08/06 01:26:28;;;;;;;2.35;1.55;;;18.30;92.40;;;;;;6185244;23;20009;-83
2023/08/06 01:29:05;;;;;;;2.97;1.60;;;18.30;92.40;;;;;;6185007;23;20019;-83
2023/08/06 01:31:34;;;;;;;1.88;1.30;;;18.30;92.40;;;;;;6185129;23;20001;-83
2023/08/06 01:34:01;;;;;;;2.45;1.60;;;18.30;92.30;;;;;;6184367;23;20439;-82
2023/08/06 01:36:28;;;;;;;2.20;1.40;;;18.30;92.30;;;;;;6210155;23;20032;-82
2023/08/06 01:38:53;;;;;;;2.80;1.70;;;18.30;92.30;;;;;;6185339;23;20008;-82
2023/08/06 01:41:19;;;;;;;2.35;1.65;;;18.30;92.30;;;;;;6185215;23;20380;-83
2023/08/06 01:43:45;;;;;;;2.25;1.60;;;18.30;92.30;;;;;;6186508;23;20355;-82
2023/08/06 01:46:10;;;;;;;2.42;1.50;;;18.30;92.30;;;;;;6184479;23;20005;-83
2023/08/06 01:48:36;;;;;;;2.25;1.50;;;18.30;92.20;;;;;;6184915;23;20071;-82
2023/08/06 01:51:05;;;;;;;2.55;1.70;;;18.30;92.20;;;;;;6185615;23;20001;-82
2023/08/06 01:53:31;;;;;;;2.85;1.60;;;18.40;92.10;;;;;;6186370;23;20005;-80
2023/08/06 01:55:57;;;;;;;2.17;1.50;;;18.40;92.10;;;;;;6184845;23;20008;-83
2023/08/06 01:58:22;;;;;;;2.10;1.48;;;18.40;92.00;;;;;;6186623;23;20001;-82
2023/08/06 02:00:48;;;;;;;3.00;1.50;;;18.40;92.00;;;;;;6186391;23;20032;-82
2023/08/06 02:03:13;;;;;;;3.33;1.60;;;18.40;92.00;;;;;;6184631;23;20001;-83
2023/08/06 02:05:40;;;;;;;2.00;1.40;;;18.40;91.90;;;;;;6184554;23;20001;-82
2023/08/06 02:08:05;;;;;;;1.98;1.40;;;18.40;91.90;;;;;;6184534;23;20051;-82
2023/08/06 02:10:31;;;;;;;2.40;1.70;;;18.40;91.90;;;;;;6184689;23;20382;-82
2023/08/06 02:12:56;;;;;;;2.47;1.63;;;18.40;91.90;;;;;;6186290;23;20689;-83
2023/08/06 02:15:22;;;;;;;2.40;1.60;;;18.40;92.00;;;;;;6184142;23;20001;-82
2023/08/06 02:17:47;;;;;;;2.53;1.38;;;18.40;92.00;;;;;;6184070;23;20024;-83
2023/08/06 02:20:13;;;;;;;2.17;1.50;;;18.30;92.10;;;;;;6186224;23;20294;-82
2023/08/06 02:22:38;;;;;;;1.90;1.38;;;18.40;92.10;;;;;;6184887;23;20084;-82
2023/08/06 02:25:04;;;;;;;2.58;1.50;;;18.30;92.10;;;;;;6185588;23;20001;-82
2023/08/06 02:27:30;;;;;;;2.72;1.45;;;18.30;92.20;;;;;;6211221;23;20063;-82
2023/08/06 02:29:56;;;;;;;2.17;1.38;;;18.30;92.20;;;;;;6182052;23;20555;-82
2023/08/06 02:32:21;;;;;;;2.58;1.48;;;18.30;92.30;;;;;;6183645;23;20029;-82
2023/08/06 02:34:47;;;;;;;2.33;1.60;;;18.30;92.30;;;;;;6184897;23;20340;-82
2023/08/06 02:37:12;;;;;;;2.75;1.75;;;18.30;92.30;;;;;;6183732;23;20001;-82
2023/08/06 02:39:39;;;;;;;1.83;1.40;;;18.30;92.40;;;;;;6185620;23;20024;-82
2023/08/06 02:42:07;;;;;;;2.75;1.58;;;18.30;92.30;;;;;;6186743;23;20042;-83
2023/08/06 02:44:33;;;;;;;2.20;1.50;;;18.20;92.30;;;;;;6210398;23;20005;-82
2023/08/06 02:46:59;;;;;;;2.63;1.58;;;18.30;92.40;;;;;;6185124;23;20013;-82
2023/08/06 02:49:24;;;;;;;2.30;1.52;;;18.30;92.40;;;;;;6185492;23;20455;-83
2023/08/06 02:51:50;;;;;;;2.78;1.58;;;18.30;92.40;;;;;;6185285;23;20001;-82
2023/08/06 02:54:15;;;;;;;2.72;1.65;;;18.30;92.40;;;;;;6184164;23;20001;-82
2023/08/06 02:56:44;;;;;;;2.10;1.50;;;18.30;92.40;;;;;;6184936;23;20008;-82
2023/08/06 02:59:10;;;;;;;2.85;1.67;;;18.30;92.40;;;;;;6184634;23;20001;-82
2023/08/06 03:01:36;;;;;;;1.88;1.38;;;18.20;92.30;;;;;;6186401;23;20005;-82
2023/08/06 03:04:01;;;;;;;2.53;1.50;;;18.30;92.40;;;;;;6185480;23;20005;-82
2023/08/06 03:06:27;;;;;;;2.10;1.38;;;18.20;92.30;;;;;;6187330;23;20032;-83
2023/08/06 03:08:52;;;;;;;5.95;1.80;;;18.20;92.30;;;;;;6185441;23;20037;-83
2023/08/06 03:11:18;;;;;;;2.72;1.70;;;18.30;92.40;;;;;;6185389;23;20024;-82
2023/08/06 03:13:43;;;;;;;2.75;1.48;;;18.20;92.30;;;;;;6184815;23;20005;-83
2023/08/06 03:16:09;;;;;;;1.85;1.35;;;18.20;92.30;;;;;;6185913;23;20005;-84
2023/08/06 03:18:34;;;;;;;2.33;1.50;;;18.30;92.50;;;;;;6190312;23;19993;-82
2023/08/06 03:21:00;;;;;;;2.97;1.77;;;18.30;92.30;;;;;;6189775;23;19997;-82
2023/08/06 03:23:25;;;;;;;2.47;1.50;;;18.30;92.30;;;;;;6188209;23;20009;-80
2023/08/06 03:25:51;;;;;;;2.53;1.50;;;18.30;92.30;;;;;;6189780;23;20001;-82
2023/08/06 03:28:17;;;;;;;2.45;1.50;;;18.30;92.20;;;;;;6188705;23;20001;-82
2023/08/06 03:30:42;;;;;;;2.72;1.50;;;18.30;92.10;;;;;;6188261;23;20016;-83
2023/08/06 03:33:08;;;;;;;2.50;1.48;;;18.30;92.10;;;;;;6188052;23;20005;-82
2023/08/06 03:35:33;;;;;;;2.33;1.50;;;18.40;92.10;;;;;;6186868;23;20057;-82
2023/08/06 03:37:59;;;;;;;2.33;1.50;;;18.40;92.00;;;;;;6187898;23;20406;-83
2023/08/06 03:40:24;;;;;;;2.53;1.60;;;18.40;92.00;;;;;;6187607;23;20008;-82
2023/08/06 03:42:50;;;;;;;3.60;1.60;;;18.40;91.90;;;;;;6187494;23;20009;-83
2023/08/06 03:45:15;;;;;;;2.30;1.42;;;18.40;91.90;;;;;;6186260;23;20060;-82
2023/08/06 03:47:41;;;;;;;1.98;1.42;;;18.40;91.90;;;;;;6187677;23;20016;-82
2023/08/06 03:50:07;;;;;;;2.22;1.48;;;18.40;91.90;;;;;;6186130;23;20036;-82
2023/08/06 03:52:32;;;;;;;2.53;1.50;;;18.40;92.00;;;;;;6186065;23;20091;-83
2023/08/06 03:54:58;;;;;;;2.88;1.50;;;18.30;92.20;;;;;;6186647;23;20001;-82
2023/08/06 03:57:23;;;;;;;2.85;1.50;;;18.30;92.00;;;;;;6188488;23;20010;-83
2023/08/06 03:59:48;;;;;;;2.45;1.50;;;18.30;92.10;;;;;;6184948;23;19998;-83
2023/08/06 04:02:14;;;;;;;2.78;1.70;;;18.30;92.10;;;;;;6186996;23;20393;-83
2023/08/06 04:04:40;;;;;;;2.13;1.50;;;18.30;92.20;;;;;;6184347;23;20080;-82
2023/08/06 04:07:05;;;;;;;2.15;1.40;;;18.30;92.20;;;;;;6184652;23;20388;-82
2023/08/06 04:09:30;;;;;;;2.60;1.65;;;18.30;92.30;;;;;;6184841;23;20383;-83
2023/08/06 04:11:58;;;;;;;2.50;1.60;;;18.30;92.30;;;;;;6186027;23;20008;-82
2023/08/06 04:14:25;;;;;;;2.42;1.40;;;18.30;92.30;;;;;;6184478;23;20131;-82
2023/08/06 04:16:51;;;;;;;3.05;1.55;;;18.30;92.30;;;;;;6184929;23;20016;-82
2023/08/06 04:19:16;;;;;;;2.90;1.70;;;18.20;92.30;;;;;;6184138;23;20343;-82
2023/08/06 04:21:42;;;;;;;2.78;1.45;;;18.20;92.30;;;;;;6184323;23;20056;-82
2023/08/06 04:24:07;;;;;;;3.13;1.60;;;18.30;92.30;;;;;;6183914;23;19997;-82
2023/08/06 04:26:33;;;;;;;2.40;1.40;;;18.30;92.30;;;;;;6185919;23;20009;-82
2023/08/06 04:28:58;;;;;;;2.65;1.60;;;18.20;92.30;;;;;;6185327;23;20068;-82
2023/08/06 04:31:24;;;;;;;2.45;1.65;;;18.20;92.30;;;;;;6183982;23;20380;-82
2023/08/06 04:33:49;;;;;;;2.53;1.50;;;18.20;92.30;;;;;;6183721;23;20009;-82
2023/08/06 04:36:15;;;;;;;3.00;1.48;;;18.20;92.30;;;;;;6183693;23;20021;-82
2023/08/06 04:38:44;;;;;;;3.25;1.90;;;18.20;92.30;;;;;;6183402;23;20436;-82
2023/08/06 04:41:10;;;;;;;1.80;1.50;;;18.20;92.50;;;;;;6185152;23;20025;-82
2023/08/06 04:43:36;;;;;;;2.05;1.48;;;18.20;92.20;;;;;;6185125;23;20001;-82
2023/08/06 04:46:01;;;;;;;2.55;1.60;;;18.20;92.20;;;;;;6184839;23;20048;-82
2023/08/06 04:48:27;;;;;;;2.70;1.45;;;18.20;92.20;;;;;;6186369;23;20008;-82
2023/08/06 04:50:52;;;;;;;2.08;1.40;;;18.20;92.20;;;;;;6185177;23;20009;-82
2023/08/06 04:53:18;;;;;;;2.78;1.58;;;18.20;92.20;;;;;;6184937;23;20436;-82
2023/08/06 04:55:44;;;;;;;2.65;1.50;;;18.20;92.20;;;;;;6186891;23;20001;-83
2023/08/06 04:58:10;;;;;;;2.30;1.60;;;18.20;92.20;;;;;;6187309;23;19997;-82
2023/08/06 05:00:36;;;;;;;3.13;1.58;;;18.20;92.20;;;;;;6186257;23;20005;-83
2023/08/06 05:03:02;;;;;;;2.80;1.48;;;18.20;92.10;;;;;;6185332;23;20012;-82
2023/08/06 05:05:28;;;;;;;2.88;1.48;;;18.30;92.10;;;;;;6187068;23;20015;-82
2023/08/06 05:07:56;;;;;;;2.53;1.42;;;18.30;92.10;;;;;;6186448;23;20009;-81
2023/08/06 05:10:24;;;;;;;2.80;1.35;;;18.30;92.00;;;;;;6180744;23;20013;-83
2023/08/06 05:12:49;;;;;;;1.92;1.30;;;18.30;92.00;;;;;;6182753;23;20447;-83
2023/08/06 05:15:15;;;;;;;2.22;1.42;;;18.30;91.90;;;;;;6181024;23;20005;-82
2023/08/06 05:17:40;;;;;;;2.15;1.40;;;18.40;91.90;;;;;;6184281;23;20007;-82
2023/08/06 05:20:06;;;;;;;2.00;1.40;;;18.30;91.90;;;;;;6182247;23;20470;-84
2023/08/06 05:22:32;;;;;;;3.30;1.60;;;18.30;91.90;;;;;;6185850;23;20019;-83
2023/08/06 05:24:57;;;;;;;2.22;1.48;;;18.40;91.90;;;;;;6185754;23;20036;-83
2023/08/06 05:27:23;;;;;;;2.42;1.52;;;18.40;91.90;;;;;;6191324;23;20035;-83
2023/08/06 05:29:48;;;;;;;2.17;1.48;;;18.40;91.90;;;;;;6184086;23;20093;-82
2023/08/06 05:32:14;;;;;;;2.97;1.67;;;18.30;91.90;;;;;;6185661;23;20009;-82
2023/08/06 05:34:41;;;;;;;2.78;1.58;;;18.30;91.90;;;;;;6184902;23;20001;-82
2023/08/06 05:37:07;;;;;;;2.50;1.58;;;18.30;92.00;;;;;;6186031;23;20032;-82
2023/08/06 05:39:32;;;;;;;2.47;1.50;;;18.30;92.00;;;;;;6185741;23;20436;-84
2023/08/06 05:41:58;;;;;;;2.45;1.60;;;18.30;92.10;;;;;;6184326;23;20009;-81
2023/08/06 05:44:23;;;;;;;1.83;1.33;;;18.30;92.10;;;;;;6184245;23;20780;-82
2023/08/06 05:46:49;;;;;;;2.78;1.60;;;18.30;92.20;;;;;;6185472;23;20011;-82
2023/08/06 05:49:15;;;;;;;2.55;1.52;;;18.30;92.20;;;;;;6187683;23;20016;-83
2023/08/06 05:51:41;;;;;;;2.00;1.50;;;18.30;92.10;;;;;;6184295;23;20015;-84
2023/08/06 05:54:06;;;;;;;3.40;1.60;;;18.30;92.20;;;;;;6183972;23;20067;-82
2023/08/06 05:56:32;;;;;;;2.72;1.63;;;18.30;92.20;;;;;;6185236;23;20011;-82
2023/08/06 05:58:57;;;;;;;3.17;1.70;;;18.30;92.20;;;;;;6186966;23;20635;-84
2023/08/06 06:01:23;;;;;;;2.95;1.55;;;18.30;92.20;;;;;;6186183;23;20436;-82
2023/08/06 06:04:09;;;;;;;2.72;1.67;;;18.30;92.20;;;;;;6182157;23;20008;-83
2023/08/06 06:06:35;;;;;;;2.60;1.38;;;18.30;92.10;;;;;;6183962;23;20032;-82
2023/08/06 06:09:05;;;;;;;2.40;1.50;;;19.90;92.50;;;;;;6186559;23;20009;-85
2023/08/06 06:11:31;;;;;;;2.78;1.60;;;18.20;92.00;;;;;;6188228;23;20016;-83
2023/08/06 06:13:57;;;;;;;2.50;1.65;;;18.30;92.00;;;;;;6184643;23;20013;-82
2023/08/06 06:16:22;;;;;;;2.38;1.60;;;18.90;92.10;;;;;;6184968;23;20012;-83
2023/08/06 06:18:48;;;;;;;2.15;1.50;;;19.50;92.30;;;;;;6184626;23;19997;-83
2023/08/06 06:21:13;;;;;;;2.28;1.55;;;18.90;92.10;;;;;;6185522;23;20009;-82
2023/08/06 06:23:39;;;;;;;2.65;1.67;;;19.00;92.10;;;;;;6185073;23;20083;-83
2023/08/06 06:26:04;;;;;;;3.00;1.70;;;18.30;91.90;;;;;;6185366;23;20387;-82
2023/08/06 06:28:33;;;;;;;2.83;1.42;;;18.50;91.90;;;;;;6187774;23;20016;-84
2023/08/06 06:31:01;;;;;;;1.92;1.50;;;18.50;91.80;;;;;;6191129;23;20016;-85
2023/08/06 06:33:27;;;;;;;3.35;1.60;;;18.40;92.00;;;;;;6187616;23;20114;-85
2023/08/06 06:35:59;;;;;;;2.03;1.50;;;19.20;92.00;;;;;;6186341;23;20001;-83
2023/08/06 06:38:27;;;;;;;2.03;1.50;;;18.40;91.70;;;;;;6190260;23;19997;-83
2023/08/06 06:41:05;;;;;;;3.53;1.80;;;18.50;91.70;;;;;;6188294;23;20427;-83
2023/08/06 06:43:32;;;;;;;2.63;1.50;;;19.70;91.90;;;;;;6190572;23;20347;-84
2023/08/06 06:46:00;;;;;;;2.45;1.40;;;19.50;91.80;;;;;;6187512;23;20005;-85
2023/08/06 06:48:28;;;;;;;1.55;1.30;;;19.40;91.70;;;;;;6183966;23;20016;-85
2023/08/06 06:50:53;;;;;;;2.13;1.40;;;18.70;91.40;;;;;;6183835;23;20868;-84
2023/08/06 06:53:19;;;;;;;2.83;1.60;;;18.60;91.30;;;;;;6185870;23;20439;-84
2023/08/06 06:55:44;;;;;;;2.53;1.48;;;18.60;91.30;;;;;;6185290;23;19997;-88
2023/08/06 06:58:10;;;;;;;2.85;1.60;;;19.20;91.30;;;;;;6185537;23;20033;-84
2023/08/06 07:00:37;;;;;;;2.17;1.52;;;18.70;91.20;;;;;;6184908;23;20013;-87
2023/08/06 07:03:02;;;;;;;2.25;1.50;;;19.60;91.30;;;;;;6184408;23;20004;-84
2023/08/06 07:05:28;;;;;;;1.98;1.42;;;18.70;91.10;;;;;;6184369;23;20709;-84
2023/08/06 07:07:53;;;;;;;3.20;1.60;;;19.60;91.30;;;;;;6183661;23;20053;-84
2023/08/06 07:10:19;;;;;;;2.88;1.67;;;18.90;91.10;;;;;;6184537;23;20005;-84
2023/08/06 07:12:44;;;;;;;3.35;1.50;;;18.70;91.10;;;;;;6183354;23;20083;-84
2023/08/06 07:15:10;;;;;;;3.42;1.65;;;18.70;91.10;;;;;;6183845;23;20403;-84
2023/08/06 07:17:36;;;;;;;2.50;1.40;;;18.70;91.10;;;;;;6209782;23;20092;-87
2023/08/06 07:20:02;;;;;;;3.00;1.45;;;18.70;91.10;;;;;;6183301;23;20383;-85
2023/08/06 07:22:28;;;;;;;2.38;1.50;;;18.70;91.10;;;;;;6184092;23;20013;-84
2023/08/06 07:24:53;;;;;;;4.43;1.60;;;18.70;91.20;;;;;;6183082;23;20001;-85
2023/08/06 07:27:19;;;;;;;2.38;1.60;;;18.70;91.20;;;;;;6182876;23;20013;-84
2023/08/06 07:29:44;;;;;;;3.53;1.70;;;18.70;91.20;;;;;;6183602;23;20087;-85
2023/08/06 07:32:10;;;;;;;2.45;1.60;;;18.70;91.20;;;;;;6182665;23;20016;-81
2023/08/06 07:34:35;;;;;;;3.45;1.58;;;18.70;91.20;;;;;;6181995;23;20005;-81
2023/08/06 07:37:01;;;;;;;3.42;1.55;;;18.70;91.30;;;;;;6181664;23;20005;-82
2023/08/06 07:39:28;;;;;;;3.65;1.50;;;18.70;91.30;;;;;;6181353;23;20032;-83
2023/08/06 07:41:54;;;;;;;2.10;1.30;;;18.60;91.30;;;;;;6181153;23;20012;-83
2023/08/06 07:44:19;;;;;;;2.55;1.60;;;18.60;91.40;;;;;;6180947;23;20451;-82
2023/08/06 07:46:45;;;;;;;3.72;1.60;;;18.60;91.40;;;;;;6181719;23;20013;-81
2023/08/06 07:49:11;;;;;;;2.60;1.65;;;18.60;91.40;;;;;;6183462;23;19997;-81
2023/08/06 07:51:36;;;;;;;2.53;1.50;;;18.60;91.50;;;;;;6183801;23;20009;-82
2023/08/06 07:54:03;;;;;;;3.25;1.60;;;18.70;91.40;;;;;;6182877;23;20028;-83
2023/08/06 07:56:28;;;;;;;2.30;1.50;;;18.70;91.30;;;;;;6180529;23;20706;-84
2023/08/06 07:58:54;;;;;;;2.58;1.45;;;18.80;91.20;;;;;;6181102;23;20006;-83
2023/08/06 08:01:19;;;;;;;2.22;1.50;;;18.80;91.20;;;;;;6180908;23;19997;-83
2023/08/06 08:03:45;;;;;;;2.53;1.52;;;18.80;91.10;;;;;;6179947;23;20024;-83
2023/08/06 08:06:11;;;;;;;2.67;1.58;;;18.90;91.00;;;;;;6178984;23;20432;-84
2023/08/06 08:08:38;;;;;;;1.95;1.45;;;18.90;91.00;;;;;;6177157;23;20092;-82
2023/08/06 08:11:04;;;;;;;2.33;1.50;;;18.90;91.10;;;;;;6178379;23;20013;-81
2023/08/06 08:13:29;;;;;;;2.60;1.50;;;18.90;90.80;;;;;;6179406;23;20510;-81
2023/08/06 08:15:58;;;;;;;3.40;1.70;;;18.90;90.80;;;;;;6182614;23;20012;-82
2023/08/06 08:18:24;;;;;;;2.20;1.40;;;19.00;90.80;;;;;;6181413;23;20040;-82
2023/08/06 08:20:50;;;;;;;2.13;1.50;;;19.00;90.80;;;;;;6181688;23;20005;-83
2023/08/06 08:23:16;;;;;;;2.20;1.52;;;19.10;90.70;;;;;;6184549;23;20005;-81
2023/08/06 08:25:41;;;;;;;2.50;1.50;;;19.10;90.60;;;;;;6181096;23;20013;-82
2023/08/06 08:28:07;;;;;;;2.50;1.50;;;19.10;90.50;;;;;;6181127;23;20025;-80
2023/08/06 08:30:33;;;;;;;4.03;1.33;;;19.20;90.50;;;;;;6207894;23;20389;-80
2023/08/06 08:32:58;;;;;;;2.05;1.35;;;19.20;90.40;;;;;;6182555;23;20407;-82
2023/08/06 08:35:24;;;;;;;2.63;1.40;;;19.20;90.30;;;;;;6187259;23;20056;-82
2023/08/06 08:37:50;;;;;;;2.28;1.50;;;19.30;90.30;;;;;;6186948;23;20069;-81
2023/08/06 08:40:16;;;;;;;1.90;1.42;;;19.30;90.30;;;;;;6187317;23;20454;-81
2023/08/06 08:42:42;;;;;;;2.47;1.50;;;19.30;90.30;;;;;;6183147;23;20008;-81
2023/08/06 08:45:13;;;;;;;2.65;1.50;;;19.30;90.30;;;;;;6182822;23;20096;-81
2023/08/06 08:47:41;;;;;;;3.50;1.67;;;19.30;90.40;;;;;;6159129;23;20017;-81
2023/08/06 08:50:07;;;;;;;2.70;1.60;;;19.20;90.40;;;;;;6207331;23;20019;-82
2023/08/06 08:52:35;;;;;;;3.03;1.60;;;19.20;90.50;;;;;;6183363;23;20424;-80
2023/08/06 08:55:01;;;;;;;2.63;1.50;;;19.10;90.60;;;;;;6183123;23;20011;-82
2023/08/06 08:57:27;;;;;;;1.83;1.30;;;19.10;90.70;;;;;;6186956;23;20008;-81
2023/08/06 08:59:53;;;;;;;2.42;1.45;;;19.00;90.80;;;;;;6185668;23;20085;-81
2023/08/06 09:02:21;;;;;;;2.53;1.50;;;19.00;90.90;;;;;;6185358;23;20012;-81
2023/08/06 09:04:48;;;;;;;3.28;1.55;;;18.90;90.90;;;;;;6184984;23;20466;-83
2023/08/06 09:07:17;;;;;;;2.75;1.60;;;18.90;91.00;;;;;;6182530;23;20009;-82
2023/08/06 09:09:46;;;;;;;3.05;1.70;;;18.90;91.10;;;;;;6184874;23;20036;-81
2023/08/06 09:12:14;;;;;;;2.85;1.60;;;18.90;91.20;;;;;;6182217;23;20001;-82
2023/08/06 09:14:40;;;;;;;1.75;1.35;;;18.90;91.20;;;;;;6183134;23;20055;-82
2023/08/06 09:17:06;;;;;;;3.75;1.60;;;18.80;91.30;;;;;;6184800;23;19997;-81
2023/08/06 09:19:31;;;;;;;2.03;1.50;;;18.80;91.30;;;;;;6182707;23;20040;-82
2023/08/06 09:21:57;;;;;;;2.67;1.60;;;18.90;91.40;;;;;;6183130;23;20001;-81
2023/08/06 09:24:23;;;;;;;3.55;1.52;;;18.80;91.40;;;;;;6182246;23;20013;-81
2023/08/06 09:26:48;;;;;;;2.83;1.52;;;18.80;91.40;;;;;;6182481;23;20063;-80
2023/08/06 09:29:17;;;;;;;2.88;1.60;;;18.80;91.40;;;;;;6182751;23;20009;-82
2023/08/06 09:31:45;;;;;;;2.70;1.50;;;18.80;91.40;;;;;;6185491;23;20084;-81
2023/08/06 09:34:19;;;;;;;3.15;1.70;;;18.90;91.40;;;;;;6181903;23;20016;-83
2023/08/06 09:36:52;;;;;;;2.58;1.60;;;18.80;91.40;;;;;;6185341;23;20024;-83
2023/08/06 09:39:24;;;;;;;2.17;1.50;;;18.80;91.40;;;;;;6183646;23;20092;-83
2023/08/06 09:41:56;;;;;;;2.25;1.50;;;18.80;91.40;;;;;;6184974;23;20449;-83
2023/08/06 09:44:23;;;;;;;;;;;18.80;91.40;;;;;;6183185;23;20012;-83
2023/08/06 09:46:50;;;;;;;2.10;1.40;;;18.70;91.40;;;;;;6182829;23;19908;-83
2023/08/06 09:49:21;;;;;;;2.40;1.50;;;18.70;91.40;;;;;;6181576;23;20020;-82
2023/08/06 09:51:50;;;;;;;3.00;1.67;;;18.80;91.40;;;;;;6185938;23;20011;-82
2023/08/06 09:54:17;;;;;;;2.03;1.50;;;18.80;91.40;;;;;;6189240;23;20032;-83
2023/08/06 09:56:43;;;;;;;3.22;1.80;;;18.80;91.40;;;;;;6188856;23;20013;-83
2023/08/06 09:59:08;;;;;;;2.58;1.55;;;18.80;91.30;;;;;;6190550;23;20012;-84
2023/08/06 10:01:35;;;;;;;2.65;1.67;;;18.80;91.20;;;;;;6195546;23;20411;-84
2023/08/06 10:04:07;;;;;;;1.95;1.40;;;18.90;91.20;;;;;;6195708;23;20016;-83
2023/08/06 10:06:37;;;;;;;2.20;1.50;;;18.90;91.10;;;;;;6194180;23;20009;-84
2023/08/06 10:09:04;;;;;;;2.70;1.80;;;18.90;91.10;;;;;;6194325;23;20287;-84
2023/08/06 10:11:30;;;;;;;3.22;1.70;;;18.90;91.10;;;;;;6195261;23;20032;-85
2023/08/06 10:14:01;;;;;;;2.65;1.63;;;18.90;91.00;;;;;;6194909;23;20009;-84
2023/08/06 10:16:28;;;;;;;3.17;1.60;;;19.00;91.00;;;;;;6191510;23;20436;-84
2023/08/06 10:18:54;;;;;;;2.45;1.52;;;19.00;91.00;;;;;;6188686;23;20042;-81
2023/08/06 10:21:21;;;;;;;2.38;1.45;;;19.00;91.00;;;;;;6181528;23;20040;-82
2023/08/06 10:23:54;;;;;;;2.80;1.70;;;19.00;91.00;;;;;;6180535;23;20320;-81
2023/08/06 10:26:19;;;;;;;2.20;1.50;;;19.00;90.90;;;;;;6181127;23;20103;-81
2023/08/06 10:28:45;;;;;;;2.17;1.50;;;19.00;90.90;;;;;;6182586;23;20044;-81
2023/08/06 10:31:10;;;;;;;3.42;1.60;;;19.00;90.90;;;;;;6180115;23;20009;-81
2023/08/06 10:33:47;;;;;;;2.03;1.50;;;19.00;90.90;;;;;;6179805;23;20009;-82
2023/08/06 10:36:14;;;;;;;2.65;1.58;;;19.10;90.90;;;;;;6205379;23;20005;-80
2023/08/06 10:38:50;;;;;;;2.78;1.67;;;19.10;90.90;;;;;;6180254;23;20705;-81
2023/08/06 10:41:29;;;;;;;2.40;1.65;;;19.10;90.90;;;;;;6182004;23;20079;-80
2023/08/06 10:44:08;;;;;;;2.30;1.50;;;19.10;90.90;;;;;;6179175;23;20467;-80
2023/08/06 10:46:34;;;;;;;2.03;1.40;;;19.00;91.00;;;;;;6180226;23;20021;-80
2023/08/06 10:49:00;;;;;;;2.63;1.40;;;19.00;90.90;;;;;;6181064;23;20009;-80
2023/08/06 10:51:27;;;;;;;2.10;1.48;;;19.00;90.90;;;;;;6181167;23;20008;-81
2023/08/06 10:53:53;;;;;;;2.83;1.60;;;19.00;90.90;;;;;;6182124;23;20039;-80
2023/08/06 10:56:23;;;;;;;2.10;1.40;;;19.00;91.00;;;;;;6180733;23;20609;-81
2023/08/06 10:58:50;;;;;;;2.35;1.45;;;19.00;91.00;;;;;;6206010;23;20009;-81
2023/08/06 11:01:16;;;;;;;2.40;1.58;;;19.00;91.00;;;;;;6180742;23;20005;-80
2023/08/06 11:03:43;;;;;;;1.98;1.40;;;19.10;91.00;;;;;;6179445;23;20212;-81
2023/08/06 11:06:09;;;;;;;2.58;1.60;;;19.10;91.00;;;;;;6180104;23;20005;-80
2023/08/06 11:08:37;;;;;;;2.17;1.35;;;19.10;90.90;;;;;;6179844;23;20009;-80
2023/08/06 11:11:13;;;;;;;2.20;1.40;;;19.10;90.90;;;;;;6181445;23;20067;-79
2023/08/06 11:13:44;;;;;;;2.58;1.60;;;19.10;90.90;;;;;;6183487;23;20017;-82
2023/08/06 11:16:10;;;;;;;2.87;1.60;;;19.20;90.90;;;;;;6183280;23;20000;-82
2023/08/06 11:18:35;;;;;;;2.22;1.58;;;19.20;90.90;;;;;;6181013;23;20012;-81
2023/08/06 11:21:02;;;;;;;2.25;1.45;;;19.10;90.90;;;;;;6183776;23;20016;-82
2023/08/06 11:23:29;;;;;;;2.53;1.60;;;19.10;90.90;;;;;;6183255;23;20076;-82
2023/08/06 11:25:55;;;;;;;2.83;1.77;;;19.20;90.90;;;;;;6184134;23;20059;-81
2023/08/06 11:28:21;;;;;;;3.10;1.52;;;19.20;91.00;;;;;;6182940;23;20868;-81
2023/08/06 11:30:47;;;;;;;2.22;1.40;;;19.10;91.00;;;;;;6181943;23;20080;-81
2023/08/06 11:33:13;;;;;;;2.58;1.55;;;19.10;91.00;;;;;;6181315;23;20013;-82
2023/08/06 11:35:39;;;;;;;2.08;1.50;;;19.10;91.00;;;;;;6181574;23;20008;-82
2023/08/06 11:38:05;;;;;;;2.05;1.50;;;19.10;91.00;;;;;;6182343;23;20072;-81
2023/08/06 11:40:32;;;;;;;2.10;1.52;;;19.00;91.00;;;;;;6206258;23;20432;-82
2023/08/06 11:42:58;;;;;;;1.60;1.25;;;19.10;91.00;;;;;;6183067;23;20040;-82
2023/08/06 11:45:24;;;;;;;2.90;1.58;;;19.10;90.90;;;;;;6180988;23;20915;-81
2023/08/06 11:47:54;;;;;;;2.47;1.50;;;19.10;91.00;;;;;;6205715;23;20156;-82
2023/08/06 11:50:27;;;;;;;2.03;1.40;;;19.10;91.00;;;;;;6181848;23;20016;-81
2023/08/06 11:53:00;;;;;;;2.72;1.52;;;19.10;91.00;;;;;;6182704;23;20005;-82
2023/08/06 11:55:28;;;;;;;2.33;1.55;;;19.00;90.90;;;;;;6182571;23;20009;-82
2023/08/06 11:57:54;;;;;;;3.22;1.60;;;19.00;90.90;;;;;;6182368;23;20001;-82
2023/08/06 12:00:22;;;;;;;2.08;1.48;;;19.00;91.00;;;;;;6184557;23;20001;-82
2023/08/06 12:02:49;;;;;;;2.08;1.50;;;19.00;91.00;;;;;;6182269;23;20092;-81
2023/08/06 12:05:25;;;;;;;2.85;1.80;;;19.00;91.10;;;;;;6181397;23;20013;-82
2023/08/06 12:08:01;;;;;;;2.78;1.42;;;19.00;91.10;;;;;;6184831;23;20001;-82
2023/08/06 12:10:28;;;;;;;2.83;1.50;;;18.90;91.10;;;;;;6183987;23;20381;-83
2023/08/06 12:12:54;;;;;;;1.98;1.40;;;19.00;91.20;;;;;;6184661;23;20157;-82
2023/08/06 12:15:20;;;;;;;2.45;1.40;;;18.90;91.20;;;;;;6185134;23;20386;-82
2023/08/06 12:17:46;;;;;;;2.10;1.33;;;18.90;91.30;;;;;;6192097;23;20005;-83
2023/08/06 12:20:12;;;;;;;2.13;1.48;;;18.90;91.30;;;;;;6188782;23;20503;-83
2023/08/06 12:22:39;;;;;;;2.30;1.50;;;18.90;91.20;;;;;;6190667;23;20009;-84
2023/08/06 12:25:08;;;;;;;2.20;1.38;;;19.10;91.30;;;;;;6189170;23;20017;-82
2023/08/06 12:27:41;;;;;;;2.78;1.52;;;18.90;91.20;;;;;;6192222;23;20431;-81
2023/08/06 12:30:07;;;;;;;2.60;1.60;;;19.00;91.20;;;;;;6187442;23;20426;-82
2023/08/06 12:32:33;;;;;;;2.15;1.70;;;19.00;91.20;;;;;;6186022;23;20681;-82
2023/08/06 12:35:00;;;;;;;2.47;1.60;;;19.00;91.20;;;;;;6185419;23;20009;-83
2023/08/06 12:37:25;;;;;;;1.45;1.30;;;19.00;91.20;;;;;;6186331;23;20012;-82
2023/08/06 12:39:51;;;;;;;2.58;1.40;;;18.90;91.20;;;;;;6189224;23;20065;-85
2023/08/06 12:42:17;;;;;;;1.90;1.40;;;18.90;91.10;;;;;;6212357;23;20005;-81
2023/08/06 12:44:43;;;;;;;2.38;1.60;;;19.00;91.20;;;;;;6186146;23;20009;-83